sensor_id;sensor_type;location;lat;lon;timestamp;P1;durP1;ratioP1;P2;durP2;ratioP2
4652;SDS011;9900;48.738;9.306;2023-06-14T00:00:46;9.27;;;5.00;;
4652;SDS011;9900;48.738;9.306;2023-06-14T00:03:15;6.93;;;4.13;;
4652;SDS011;9900;48.738;9.306;2023-06-14T00:05:46;5.63;;;3.93;;
4652;SDS011;9900;48.738;9.306;2023-06-14T00:08:15;8.07;;;4.60;;
4652;SDS011;9900;48.738;9.306;2023-06-14T00:10:46;7.77;;;4.43;;
4652;SDS011;9900;48.738;9.306;2023-06-14T00:13:15;10.80;;;4.47;;
4652;SDS011;9900;48.738;9.306;2023-06-14T00:15:44;8.40;;;4.33;;
4652;SDS011;9900;48.738;9.306;2023-06-14T00:18:13;5.60;;;4.30;;
4652;SDS011;9900;48.738;9.306;2023-06-14T00:20:43;7.40;;;4.47;;
4652;SDS011;9900;48.738;9.306;2023-06-14T00:23:15;5.70;;;4.07;;
4652;SDS011;9900;48.738;9.306;2023-06-14T00:25:43;9.97;;;5.20;;
4652;SDS011;9900;48.738;9.306;2023-06-14T00:28:12;14.63;;;4.20;;
4652;SDS011;9900;48.738;9.306;2023-06-14T00:30:41;13.60;;;4.67;;
4652;SDS011;9900;48.738;9.306;2023-06-14T00:33:11;4.70;;;3.80;;
4652;SDS011;9900;48.738;9.306;2023-06-14T00:35:40;7.23;;;5.20;;
4652;SDS011;9900;48.738;9.306;2023-06-14T00:38:09;7.43;;;4.53;;
4652;SDS011;9900;48.738;9.306;2023-06-14T00:40:39;7.37;;;4.90;;
4652;SDS011;9900;48.738;9.306;2023-06-14T00:43:08;7.37;;;3.70;;
4652;SDS011;9900;48.738;9.306;2023-06-14T00:45:37;7.17;;;4.10;;
4652;SDS011;9900;48.738;9.306;2023-06-14T00:48:05;11.50;;;4.57;;
4652;SDS011;9900;48.738;9.306;2023-06-14T00:50:36;11.07;;;4.60;;
4652;SDS011;9900;48.738;9.306;2023-06-14T00:53:05;7.37;;;4.47;;
4652;SDS011;9900;48.738;9.306;2023-06-14T00:55:34;7.27;;;5.30;;
4652;SDS011;9900;48.738;9.306;2023-06-14T00:58:04;8.00;;;4.60;;
4652;SDS011;9900;48.738;9.306;2023-06-14T01:00:33;11.23;;;5.07;;
4652;SDS011;9900;48.738;9.306;2023-06-14T01:03:02;6.33;;;4.90;;
4652;SDS011;9900;48.738;9.306;2023-06-14T01:05:31;9.30;;;5.33;;
4652;SDS011;9900;48.738;9.306;2023-06-14T01:08:05;13.57;;;4.80;;
4652;SDS011;9900;48.738;9.306;2023-06-14T01:10:45;7.73;;;4.80;;
4652;SDS011;9900;48.738;9.306;2023-06-14T01:13:23;13.50;;;5.07;;
4652;SDS011;9900;48.738;9.306;2023-06-14T01:15:54;8.83;;;4.47;;
4652;SDS011;9900;48.738;9.306;2023-06-14T01:18:24;9.83;;;4.20;;
4652;SDS011;9900;48.738;9.306;2023-06-14T01:20:53;8.30;;;4.40;;
4652;SDS011;9900;48.738;9.306;2023-06-14T01:23:24;5.90;;;4.70;;
4652;SDS011;9900;48.738;9.306;2023-06-14T01:26:00;5.73;;;4.80;;
4652;SDS011;9900;48.738;9.306;2023-06-14T01:28:31;9.60;;;4.37;;
4652;SDS011;9900;48.738;9.306;2023-06-14T01:31:01;4.63;;;4.10;;
4652;SDS011;9900;48.738;9.306;2023-06-14T01:33:32;5.83;;;4.30;;
4652;SDS011;9900;48.738;9.306;2023-06-14T01:36:01;5.13;;;4.60;;
4652;SDS011;9900;48.738;9.306;2023-06-14T01:38:32;9.37;;;4.43;;
4652;SDS011;9900;48.738;9.306;2023-06-14T01:41:01;8.03;;;4.00;;
4652;SDS011;9900;48.738;9.306;2023-06-14T01:43:31;9.50;;;4.43;;
4652;SDS011;9900;48.738;9.306;2023-06-14T01:46:00;10.57;;;4.37;;
4652;SDS011;9900;48.738;9.306;2023-06-14T01:48:29;8.93;;;4.80;;
4652;SDS011;9900;48.738;9.306;2023-06-14T01:50:57;6.10;;;5.00;;
4652;SDS011;9900;48.738;9.306;2023-06-14T01:53:26;10.73;;;4.67;;
4652;SDS011;9900;48.738;9.306;2023-06-14T01:55:56;7.07;;;4.90;;
4652;SDS011;9900;48.738;9.306;2023-06-14T01:58:26;13.43;;;4.63;;
4652;SDS011;9900;48.738;9.306;2023-06-14T02:00:55;9.47;;;4.90;;
4652;SDS011;9900;48.738;9.306;2023-06-14T02:03:24;6.23;;;4.63;;
4652;SDS011;9900;48.738;9.306;2023-06-14T02:05:53;6.23;;;4.70;;
4652;SDS011;9900;48.738;9.306;2023-06-14T02:08:23;8.40;;;4.20;;
4652;SDS011;9900;48.738;9.306;2023-06-14T02:10:52;7.77;;;4.47;;
4652;SDS011;9900;48.738;9.306;2023-06-14T02:13:22;6.83;;;4.53;;
4652;SDS011;9900;48.738;9.306;2023-06-14T02:15:51;5.47;;;4.20;;
4652;SDS011;9900;48.738;9.306;2023-06-14T02:18:22;7.10;;;5.33;;
4652;SDS011;9900;48.738;9.306;2023-06-14T02:20:51;7.03;;;4.73;;
4652;SDS011;9900;48.738;9.306;2023-06-14T02:23:20;7.43;;;4.47;;
4652;SDS011;9900;48.738;9.306;2023-06-14T02:25:49;9.17;;;5.00;;
4652;SDS011;9900;48.738;9.306;2023-06-14T02:28:18;8.83;;;4.30;;
4652;SDS011;9900;48.738;9.306;2023-06-14T02:30:49;12.00;;;4.70;;
4652;SDS011;9900;48.738;9.306;2023-06-14T02:33:18;5.40;;;4.07;;
4652;SDS011;9900;48.738;9.306;2023-06-14T02:35:47;6.67;;;4.27;;
4652;SDS011;9900;48.738;9.306;2023-06-14T02:38:16;6.80;;;4.60;;
4652;SDS011;9900;48.738;9.306;2023-06-14T02:40:44;7.00;;;4.43;;
4652;SDS011;9900;48.738;9.306;2023-06-14T02:43:14;10.93;;;5.90;;
4652;SDS011;9900;48.738;9.306;2023-06-14T02:45:44;8.70;;;4.73;;
4652;SDS011;9900;48.738;9.306;2023-06-14T02:48:15;4.57;;;4.17;;
4652;SDS011;9900;48.738;9.306;2023-06-14T02:50:43;5.57;;;4.40;;
4652;SDS011;9900;48.738;9.306;2023-06-14T02:53:12;8.93;;;4.93;;
4652;SDS011;9900;48.738;9.306;2023-06-14T02:55:41;9.00;;;4.50;;
4652;SDS011;9900;48.738;9.306;2023-06-14T02:58:11;7.70;;;4.90;;
4652;SDS011;9900;48.738;9.306;2023-06-14T03:00:40;9.70;;;4.33;;
4652;SDS011;9900;48.738;9.306;2023-06-14T03:03:09;12.90;;;4.57;;
4652;SDS011;9900;48.738;9.306;2023-06-14T03:05:43;8.60;;;4.67;;
4652;SDS011;9900;48.738;9.306;2023-06-14T03:08:15;8.23;;;5.40;;
4652;SDS011;9900;48.738;9.306;2023-06-14T03:10:46;7.83;;;4.93;;
4652;SDS011;9900;48.738;9.306;2023-06-14T03:13:15;7.70;;;4.83;;
4652;SDS011;9900;48.738;9.306;2023-06-14T03:15:44;8.17;;;4.93;;
4652;SDS011;9900;48.738;9.306;2023-06-14T03:18:13;6.67;;;5.13;;
4652;SDS011;9900;48.738;9.306;2023-06-14T03:20:43;12.33;;;4.77;;
4652;SDS011;9900;48.738;9.306;2023-06-14T03:23:12;5.70;;;5.00;;
4652;SDS011;9900;48.738;9.306;2023-06-14T03:25:41;4.73;;;4.17;;
4652;SDS011;9900;48.738;9.306;2023-06-14T03:28:10;6.60;;;5.10;;
4652;SDS011;9900;48.738;9.306;2023-06-14T03:30:39;7.53;;;4.50;;
4652;SDS011;9900;48.738;9.306;2023-06-14T03:33:08;6.43;;;5.27;;
4652;SDS011;9900;48.738;9.306;2023-06-14T03:35:37;10.47;;;4.80;;
4652;SDS011;9900;48.738;9.306;2023-06-14T03:38:07;7.17;;;5.03;;
4652;SDS011;9900;48.738;9.306;2023-06-14T03:40:36;14.73;;;4.93;;
4652;SDS011;9900;48.738;9.306;2023-06-14T03:43:04;6.93;;;4.47;;
4652;SDS011;9900;48.738;9.306;2023-06-14T03:45:33;7.37;;;4.77;;
4652;SDS011;9900;48.738;9.306;2023-06-14T03:48:02;8.17;;;5.27;;
4652;SDS011;9900;48.738;9.306;2023-06-14T03:50:36;10.37;;;5.10;;
4652;SDS011;9900;48.738;9.306;2023-06-14T03:53:07;16.47;;;5.20;;
4652;SDS011;9900;48.738;9.306;2023-06-14T03:55:35;12.00;;;4.90;;
4652;SDS011;9900;48.738;9.306;2023-06-14T03:58:23;10.20;;;5.37;;
4652;SDS011;9900;48.738;9.306;2023-06-14T04:00:52;10.70;;;4.40;;
4652;SDS011;9900;48.738;9.306;2023-06-14T04:03:21;5.90;;;4.90;;
4652;SDS011;9900;48.738;9.306;2023-06-14T04:05:52;8.23;;;5.07;;
4652;SDS011;9900;48.738;9.306;2023-06-14T04:08:25;11.20;;;5.20;;
4652;SDS011;9900;48.738;9.306;2023-06-14T04:10:54;9.07;;;5.43;;
4652;SDS011;9900;48.738;9.306;2023-06-14T04:13:23;7.53;;;5.10;;
4652;SDS011;9900;48.738;9.306;2023-06-14T04:15:52;6.97;;;5.03;;
4652;SDS011;9900;48.738;9.306;2023-06-14T04:18:20;8.30;;;5.20;;
4652;SDS011;9900;48.738;9.306;2023-06-14T04:20:51;15.43;;;6.30;;
4652;SDS011;9900;48.738;9.306;2023-06-14T04:23:20;8.70;;;5.43;;
4652;SDS011;9900;48.738;9.306;2023-06-14T04:25:52;9.00;;;5.93;;
4652;SDS011;9900;48.738;9.306;2023-06-14T04:28:21;7.27;;;4.77;;
4652;SDS011;9900;48.738;9.306;2023-06-14T04:30:54;7.30;;;5.47;;
4652;SDS011;9900;48.738;9.306;2023-06-14T04:33:23;12.80;;;5.80;;
4652;SDS011;9900;48.738;9.306;2023-06-14T04:35:52;7.37;;;5.30;;
4652;SDS011;9900;48.738;9.306;2023-06-14T04:38:23;9.87;;;5.03;;
4652;SDS011;9900;48.738;9.306;2023-06-14T04:40:55;8.03;;;5.60;;
4652;SDS011;9900;48.738;9.306;2023-06-14T04:43:24;9.03;;;5.40;;
4652;SDS011;9900;48.738;9.306;2023-06-14T04:45:53;7.00;;;5.40;;
4652;SDS011;9900;48.738;9.306;2023-06-14T04:48:23;6.70;;;5.43;;
4652;SDS011;9900;48.738;9.306;2023-06-14T04:50:52;6.53;;;5.47;;
4652;SDS011;9900;48.738;9.306;2023-06-14T04:53:21;11.10;;;6.50;;
4652;SDS011;9900;48.738;9.306;2023-06-14T04:55:50;10.90;;;6.00;;
4652;SDS011;9900;48.738;9.306;2023-06-14T04:58:21;8.37;;;5.83;;
4652;SDS011;9900;48.738;9.306;2023-06-14T05:00:50;8.57;;;6.30;;
4652;SDS011;9900;48.738;9.306;2023-06-14T05:03:19;7.93;;;5.70;;
4652;SDS011;9900;48.738;9.306;2023-06-14T05:05:48;9.23;;;6.13;;
4652;SDS011;9900;48.738;9.306;2023-06-14T05:08:17;6.40;;;5.73;;
4652;SDS011;9900;48.738;9.306;2023-06-14T05:10:47;9.83;;;5.93;;
4652;SDS011;9900;48.738;9.306;2023-06-14T05:13:16;13.20;;;5.27;;
4652;SDS011;9900;48.738;9.306;2023-06-14T05:15:46;13.90;;;6.00;;
4652;SDS011;9900;48.738;9.306;2023-06-14T05:18:16;12.97;;;7.00;;
4652;SDS011;9900;48.738;9.306;2023-06-14T05:20:45;12.83;;;5.87;;
4652;SDS011;9900;48.738;9.306;2023-06-14T05:23:14;9.40;;;6.87;;
4652;SDS011;9900;48.738;9.306;2023-06-14T05:25:43;12.40;;;7.20;;
4652;SDS011;9900;48.738;9.306;2023-06-14T05:28:12;9.03;;;6.33;;
4652;SDS011;9900;48.738;9.306;2023-06-14T05:30:41;9.13;;;6.50;;
4652;SDS011;9900;48.738;9.306;2023-06-14T05:33:11;12.60;;;6.97;;
4652;SDS011;9900;48.738;9.306;2023-06-14T05:35:40;11.87;;;6.87;;
4652;SDS011;9900;48.738;9.306;2023-06-14T05:38:09;11.30;;;6.80;;
4652;SDS011;9900;48.738;9.306;2023-06-14T05:40:38;17.10;;;7.03;;
4652;SDS011;9900;48.738;9.306;2023-06-14T05:43:07;8.03;;;6.07;;
4652;SDS011;9900;48.738;9.306;2023-06-14T05:45:36;12.03;;;6.27;;
4652;SDS011;9900;48.738;9.306;2023-06-14T05:48:05;11.10;;;6.43;;
4652;SDS011;9900;48.738;9.306;2023-06-14T05:50:35;8.13;;;5.97;;
4652;SDS011;9900;48.738;9.306;2023-06-14T05:53:04;14.03;;;6.40;;
4652;SDS011;9900;48.738;9.306;2023-06-14T05:55:33;11.43;;;6.77;;
4652;SDS011;9900;48.738;9.306;2023-06-14T05:58:02;14.60;;;6.90;;
4652;SDS011;9900;48.738;9.306;2023-06-14T06:00:31;10.80;;;7.10;;
4652;SDS011;9900;48.738;9.306;2023-06-14T06:03:01;15.67;;;7.37;;
4652;SDS011;9900;48.738;9.306;2023-06-14T06:05:29;15.13;;;7.20;;
4652;SDS011;9900;48.738;9.306;2023-06-14T06:08:00;11.00;;;7.03;;
4652;SDS011;9900;48.738;9.306;2023-06-14T06:10:29;14.50;;;7.13;;
4652;SDS011;9900;48.738;9.306;2023-06-14T06:12:57;11.93;;;6.63;;
4652;SDS011;9900;48.738;9.306;2023-06-14T06:15:26;9.77;;;6.67;;
4652;SDS011;9900;48.738;9.306;2023-06-14T06:17:55;12.40;;;6.90;;
4652;SDS011;9900;48.738;9.306;2023-06-14T06:20:24;10.73;;;6.30;;
4652;SDS011;9900;48.738;9.306;2023-06-14T06:22:56;9.53;;;7.03;;
4652;SDS011;9900;48.738;9.306;2023-06-14T06:25:27;14.60;;;7.20;;
4652;SDS011;9900;48.738;9.306;2023-06-14T06:27:58;12.80;;;6.83;;
4652;SDS011;9900;48.738;9.306;2023-06-14T06:30:26;22.17;;;7.70;;
4652;SDS011;9900;48.738;9.306;2023-06-14T06:32:55;8.73;;;5.67;;
4652;SDS011;9900;48.738;9.306;2023-06-14T06:35:24;15.30;;;5.40;;
4652;SDS011;9900;48.738;9.306;2023-06-14T06:37:53;8.03;;;5.10;;
4652;SDS011;9900;48.738;9.306;2023-06-14T06:40:22;11.13;;;5.50;;
4652;SDS011;9900;48.738;9.306;2023-06-14T06:42:53;7.63;;;3.90;;
4652;SDS011;9900;48.738;9.306;2023-06-14T06:45:22;13.00;;;5.10;;
4652;SDS011;9900;48.738;9.306;2023-06-14T06:47:52;10.57;;;4.50;;
4652;SDS011;9900;48.738;9.306;2023-06-14T06:50:21;4.90;;;4.30;;
4652;SDS011;9900;48.738;9.306;2023-06-14T06:52:52;7.43;;;4.67;;
4652;SDS011;9900;48.738;9.306;2023-06-14T06:55:21;7.33;;;4.80;;
4652;SDS011;9900;48.738;9.306;2023-06-14T06:57:50;6.97;;;4.33;;
4652;SDS011;9900;48.738;9.306;2023-06-14T07:00:22;10.23;;;4.50;;
4652;SDS011;9900;48.738;9.306;2023-06-14T07:02:54;4.30;;;3.83;;
4652;SDS011;9900;48.738;9.306;2023-06-14T07:05:24;12.23;;;4.30;;
4652;SDS011;9900;48.738;9.306;2023-06-14T07:07:53;5.93;;;4.53;;
4652;SDS011;9900;48.738;9.306;2023-06-14T07:10:24;5.87;;;3.77;;
4652;SDS011;9900;48.738;9.306;2023-06-14T07:12:53;9.00;;;4.63;;
4652;SDS011;9900;48.738;9.306;2023-06-14T07:15:23;7.23;;;4.20;;
4652;SDS011;9900;48.738;9.306;2023-06-14T07:17:53;12.60;;;5.03;;
4652;SDS011;9900;48.738;9.306;2023-06-14T07:20:27;7.87;;;3.80;;
4652;SDS011;9900;48.738;9.306;2023-06-14T07:22:56;5.27;;;3.60;;
4652;SDS011;9900;48.738;9.306;2023-06-14T07:25:25;10.43;;;3.83;;
4652;SDS011;9900;48.738;9.306;2023-06-14T07:27:54;6.10;;;3.60;;
4652;SDS011;9900;48.738;9.306;2023-06-14T07:30:24;5.00;;;4.03;;
4652;SDS011;9900;48.738;9.306;2023-06-14T07:32:54;6.80;;;3.93;;
4652;SDS011;9900;48.738;9.306;2023-06-14T07:35:23;5.90;;;3.97;;
4652;SDS011;9900;48.738;9.306;2023-06-14T07:37:52;4.47;;;3.90;;
4652;SDS011;9900;48.738;9.306;2023-06-14T07:40:21;5.00;;;3.83;;
4652;SDS011;9900;48.738;9.306;2023-06-14T07:42:50;5.87;;;4.03;;
4652;SDS011;9900;48.738;9.306;2023-06-14T07:45:19;4.77;;;4.00;;
4652;SDS011;9900;48.738;9.306;2023-06-14T07:47:49;7.83;;;3.90;;
4652;SDS011;9900;48.738;9.306;2023-06-14T07:50:19;4.80;;;3.60;;
4652;SDS011;9900;48.738;9.306;2023-06-14T07:52:47;6.03;;;4.07;;
4652;SDS011;9900;48.738;9.306;2023-06-14T07:55:16;5.70;;;3.60;;
4652;SDS011;9900;48.738;9.306;2023-06-14T07:57:45;6.97;;;4.03;;
4652;SDS011;9900;48.738;9.306;2023-06-14T08:00:15;5.13;;;3.77;;
4652;SDS011;9900;48.738;9.306;2023-06-14T08:02:45;7.47;;;3.97;;
4652;SDS011;9900;48.738;9.306;2023-06-14T08:05:16;4.13;;;3.73;;
4652;SDS011;9900;48.738;9.306;2023-06-14T08:07:45;5.10;;;4.43;;
4652;SDS011;9900;48.738;9.306;2023-06-14T08:10:14;7.93;;;3.90;;
4652;SDS011;9900;48.738;9.306;2023-06-14T08:12:43;4.80;;;4.30;;
4652;SDS011;9900;48.738;9.306;2023-06-14T08:15:12;5.73;;;3.87;;
4652;SDS011;9900;48.738;9.306;2023-06-14T08:17:42;5.47;;;3.70;;
4652;SDS011;9900;48.738;9.306;2023-06-14T08:20:11;5.77;;;3.80;;
4652;SDS011;9900;48.738;9.306;2023-06-14T08:22:44;9.93;;;3.80;;
4652;SDS011;9900;48.738;9.306;2023-06-14T08:25:15;8.00;;;4.00;;
4652;SDS011;9900;48.738;9.306;2023-06-14T08:27:44;9.03;;;4.47;;
4652;SDS011;9900;48.738;9.306;2023-06-14T08:30:13;7.70;;;4.57;;
4652;SDS011;9900;48.738;9.306;2023-06-14T08:32:44;7.27;;;3.80;;
4652;SDS011;9900;48.738;9.306;2023-06-14T08:35:19;7.50;;;3.80;;
4652;SDS011;9900;48.738;9.306;2023-06-14T08:37:50;5.40;;;3.70;;
4652;SDS011;9900;48.738;9.306;2023-06-14T08:40:19;7.83;;;3.60;;
4652;SDS011;9900;48.738;9.306;2023-06-14T08:42:52;5.60;;;3.87;;
4652;SDS011;9900;48.738;9.306;2023-06-14T08:45:23;12.37;;;4.63;;
4652;SDS011;9900;48.738;9.306;2023-06-14T08:47:56;10.63;;;4.20;;
4652;SDS011;9900;48.738;9.306;2023-06-14T08:50:27;5.93;;;3.30;;
4652;SDS011;9900;48.738;9.306;2023-06-14T08:53:01;4.37;;;3.53;;
4652;SDS011;9900;48.738;9.306;2023-06-14T08:55:31;4.60;;;3.47;;
4652;SDS011;9900;48.738;9.306;2023-06-14T08:58:04;9.90;;;4.07;;
4652;SDS011;9900;48.738;9.306;2023-06-14T09:00:33;6.63;;;3.63;;
4652;SDS011;9900;48.738;9.306;2023-06-14T09:03:02;5.43;;;3.73;;
4652;SDS011;9900;48.738;9.306;2023-06-14T09:05:33;9.37;;;4.00;;
4652;SDS011;9900;48.738;9.306;2023-06-14T09:08:03;9.10;;;4.03;;
4652;SDS011;9900;48.738;9.306;2023-06-14T09:10:33;4.10;;;3.70;;
4652;SDS011;9900;48.738;9.306;2023-06-14T09:13:05;6.23;;;3.43;;
4652;SDS011;9900;48.738;9.306;2023-06-14T09:15:34;6.23;;;3.87;;
4652;SDS011;9900;48.738;9.306;2023-06-14T09:18:03;4.47;;;4.07;;
4652;SDS011;9900;48.738;9.306;2023-06-14T09:20:33;6.93;;;3.30;;
4652;SDS011;9900;48.738;9.306;2023-06-14T09:23:03;4.10;;;3.73;;
4652;SDS011;9900;48.738;9.306;2023-06-14T09:25:41;5.40;;;4.33;;
4652;SDS011;9900;48.738;9.306;2023-06-14T09:28:11;7.33;;;3.57;;
4652;SDS011;9900;48.738;9.306;2023-06-14T09:30:40;6.00;;;3.50;;
4652;SDS011;9900;48.738;9.306;2023-06-14T09:33:09;5.10;;;3.77;;
4652;SDS011;9900;48.738;9.306;2023-06-14T09:35:38;4.10;;;3.70;;
4652;SDS011;9900;48.738;9.306;2023-06-14T09:38:08;8.00;;;3.73;;
4652;SDS011;9900;48.738;9.306;2023-06-14T09:40:37;9.57;;;3.33;;
4652;SDS011;9900;48.738;9.306;2023-06-14T09:43:07;6.10;;;3.50;;
4652;SDS011;9900;48.738;9.306;2023-06-14T09:45:38;4.37;;;3.20;;
4652;SDS011;9900;48.738;9.306;2023-06-14T09:48:08;8.77;;;3.67;;
4652;SDS011;9900;48.738;9.306;2023-06-14T09:50:37;6.53;;;3.97;;
4652;SDS011;9900;48.738;9.306;2023-06-14T09:53:10;6.07;;;4.23;;
4652;SDS011;9900;48.738;9.306;2023-06-14T09:55:40;7.00;;;4.23;;
4652;SDS011;9900;48.738;9.306;2023-06-14T09:58:10;8.07;;;4.20;;
4652;SDS011;9900;48.738;9.306;2023-06-14T10:00:39;3.80;;;2.93;;
4652;SDS011;9900;48.738;9.306;2023-06-14T10:03:12;4.83;;;3.00;;
4652;SDS011;9900;48.738;9.306;2023-06-14T10:05:43;11.80;;;3.97;;
4652;SDS011;9900;48.738;9.306;2023-06-14T10:08:15;5.00;;;3.70;;
4652;SDS011;9900;48.738;9.306;2023-06-14T10:10:45;5.33;;;3.67;;
4652;SDS011;9900;48.738;9.306;2023-06-14T10:13:14;5.20;;;4.07;;
4652;SDS011;9900;48.738;9.306;2023-06-14T10:15:47;8.97;;;4.20;;
4652;SDS011;9900;48.738;9.306;2023-06-14T10:18:23;9.60;;;3.70;;
4652;SDS011;9900;48.738;9.306;2023-06-14T10:20:57;3.87;;;3.43;;
4652;SDS011;9900;48.738;9.306;2023-06-14T10:23:37;6.13;;;4.10;;
4652;SDS011;9900;48.738;9.306;2023-06-14T10:26:17;7.77;;;3.77;;
4652;SDS011;9900;48.738;9.306;2023-06-14T10:28:58;5.90;;;3.80;;
4652;SDS011;9900;48.738;9.306;2023-06-14T10:31:41;5.90;;;3.73;;
4652;SDS011;9900;48.738;9.306;2023-06-14T10:34:11;4.43;;;4.00;;
4652;SDS011;9900;48.738;9.306;2023-06-14T10:36:41;4.10;;;3.43;;
4652;SDS011;9900;48.738;9.306;2023-06-14T10:39:14;9.70;;;3.70;;
4652;SDS011;9900;48.738;9.306;2023-06-14T10:41:50;3.60;;;3.30;;
4652;SDS011;9900;48.738;9.306;2023-06-14T10:44:40;3.90;;;3.50;;
4652;SDS011;9900;48.738;9.306;2023-06-14T10:47:10;6.30;;;3.73;;
4652;SDS011;9900;48.738;9.306;2023-06-14T10:49:49;5.40;;;3.50;;
4652;SDS011;9900;48.738;9.306;2023-06-14T10:52:23;8.67;;;3.40;;
4652;SDS011;9900;48.738;9.306;2023-06-14T10:54:57;7.40;;;3.50;;
4652;SDS011;9900;48.738;9.306;2023-06-14T10:57:36;4.57;;;3.40;;
4652;SDS011;9900;48.738;9.306;2023-06-14T11:00:18;6.43;;;3.70;;
4652;SDS011;9900;48.738;9.306;2023-06-14T11:05:58;6.10;;;3.50;;
4652;SDS011;9900;48.738;9.306;2023-06-14T11:11:23;5.33;;;3.40;;
4652;SDS011;9900;48.738;9.306;2023-06-14T11:13:53;5.57;;;3.80;;
4652;SDS011;9900;48.738;9.306;2023-06-14T11:16:22;5.73;;;3.60;;
4652;SDS011;9900;48.738;9.306;2023-06-14T11:18:54;4.97;;;3.30;;
4652;SDS011;9900;48.738;9.306;2023-06-14T11:21:23;5.83;;;3.40;;
4652;SDS011;9900;48.738;9.306;2023-06-14T11:23:52;3.97;;;3.53;;
4652;SDS011;9900;48.738;9.306;2023-06-14T11:26:27;6.13;;;3.20;;
4652;SDS011;9900;48.738;9.306;2023-06-14T11:28:56;10.93;;;3.23;;
4652;SDS011;9900;48.738;9.306;2023-06-14T11:31:25;4.07;;;3.53;;
4652;SDS011;9900;48.738;9.306;2023-06-14T11:33:56;5.77;;;3.43;;
4652;SDS011;9900;48.738;9.306;2023-06-14T11:36:26;3.87;;;3.43;;
4652;SDS011;9900;48.738;9.306;2023-06-14T11:38:58;6.13;;;3.63;;
4652;SDS011;9900;48.738;9.306;2023-06-14T11:41:33;5.10;;;3.40;;
4652;SDS011;9900;48.738;9.306;2023-06-14T11:44:04;5.60;;;3.30;;
4652;SDS011;9900;48.738;9.306;2023-06-14T11:46:34;4.40;;;3.53;;
4652;SDS011;9900;48.738;9.306;2023-06-14T11:49:03;4.07;;;3.37;;
4652;SDS011;9900;48.738;9.306;2023-06-14T11:51:35;4.27;;;3.23;;
4652;SDS011;9900;48.738;9.306;2023-06-14T11:54:04;4.57;;;3.23;;
4652;SDS011;9900;48.738;9.306;2023-06-14T11:56:36;4.53;;;3.70;;
4652;SDS011;9900;48.738;9.306;2023-06-14T11:59:05;7.60;;;3.77;;
4652;SDS011;9900;48.738;9.306;2023-06-14T12:01:37;6.60;;;3.33;;
4652;SDS011;9900;48.738;9.306;2023-06-14T12:04:07;4.30;;;3.43;;
4652;SDS011;9900;48.738;9.306;2023-06-14T12:06:36;7.23;;;3.13;;
4652;SDS011;9900;48.738;9.306;2023-06-14T12:09:10;11.83;;;3.40;;
4652;SDS011;9900;48.738;9.306;2023-06-14T12:11:45;4.67;;;2.80;;
4652;SDS011;9900;48.738;9.306;2023-06-14T12:14:14;10.93;;;3.43;;
4652;SDS011;9900;48.738;9.306;2023-06-14T12:16:43;5.23;;;2.73;;
4652;SDS011;9900;48.738;9.306;2023-06-14T12:19:13;11.97;;;3.47;;
4652;SDS011;9900;48.738;9.306;2023-06-14T12:21:43;3.60;;;3.30;;
4652;SDS011;9900;48.738;9.306;2023-06-14T12:24:15;7.50;;;3.60;;
4652;SDS011;9900;48.738;9.306;2023-06-14T12:26:46;4.43;;;3.20;;
4652;SDS011;9900;48.738;9.306;2023-06-14T12:29:14;4.03;;;3.20;;
4652;SDS011;9900;48.738;9.306;2023-06-14T12:31:43;4.50;;;3.13;;
4652;SDS011;9900;48.738;9.306;2023-06-14T12:34:12;6.30;;;3.60;;
4652;SDS011;9900;48.738;9.306;2023-06-14T12:36:41;7.87;;;3.30;;
4652;SDS011;9900;48.738;9.306;2023-06-14T12:39:12;6.07;;;3.40;;
4652;SDS011;9900;48.738;9.306;2023-06-14T12:41:41;5.97;;;2.80;;
4652;SDS011;9900;48.738;9.306;2023-06-14T12:44:11;5.53;;;3.77;;
4652;SDS011;9900;48.738;9.306;2023-06-14T12:46:41;6.63;;;3.37;;
4652;SDS011;9900;48.738;9.306;2023-06-14T12:49:11;8.83;;;3.40;;
4652;SDS011;9900;48.738;9.306;2023-06-14T12:51:40;6.23;;;3.33;;
4652;SDS011;9900;48.738;9.306;2023-06-14T12:54:09;7.50;;;4.00;;
4652;SDS011;9900;48.738;9.306;2023-06-14T12:56:37;4.70;;;2.70;;
4652;SDS011;9900;48.738;9.306;2023-06-14T12:59:06;5.83;;;3.43;;
4652;SDS011;9900;48.738;9.306;2023-06-14T13:01:37;3.90;;;3.20;;
4652;SDS011;9900;48.738;9.306;2023-06-14T13:04:06;4.13;;;3.30;;
4652;SDS011;9900;48.738;9.306;2023-06-14T13:06:35;9.30;;;3.40;;
4652;SDS011;9900;48.738;9.306;2023-06-14T13:09:04;11.93;;;3.90;;
4652;SDS011;9900;48.738;9.306;2023-06-14T13:11:34;3.40;;;3.10;;
4652;SDS011;9900;48.738;9.306;2023-06-14T13:14:03;4.93;;;3.20;;
4652;SDS011;9900;48.738;9.306;2023-06-14T13:16:49;9.20;;;2.80;;
4652;SDS011;9900;48.738;9.306;2023-06-14T13:19:18;5.07;;;3.03;;
4652;SDS011;9900;48.738;9.306;2023-06-14T13:21:47;6.07;;;3.67;;
4652;SDS011;9900;48.738;9.306;2023-06-14T13:24:16;3.77;;;3.00;;
4652;SDS011;9900;48.738;9.306;2023-06-14T13:26:44;3.83;;;3.50;;
4652;SDS011;9900;48.738;9.306;2023-06-14T13:29:13;5.23;;;3.57;;
4652;SDS011;9900;48.738;9.306;2023-06-14T13:31:42;7.87;;;3.57;;
4652;SDS011;9900;48.738;9.306;2023-06-14T13:34:12;6.93;;;3.20;;
4652;SDS011;9900;48.738;9.306;2023-06-14T13:36:41;4.70;;;3.40;;
4652;SDS011;9900;48.738;9.306;2023-06-14T13:39:10;4.20;;;3.23;;
4652;SDS011;9900;48.738;9.306;2023-06-14T13:41:39;4.70;;;3.40;;
4652;SDS011;9900;48.738;9.306;2023-06-14T13:44:08;4.23;;;3.50;;
4652;SDS011;9900;48.738;9.306;2023-06-14T13:46:40;9.43;;;3.60;;
4652;SDS011;9900;48.738;9.306;2023-06-14T13:49:10;5.77;;;3.63;;
4652;SDS011;9900;48.738;9.306;2023-06-14T13:51:40;3.50;;;3.10;;
4652;SDS011;9900;48.738;9.306;2023-06-14T13:54:11;3.23;;;3.00;;
4652;SDS011;9900;48.738;9.306;2023-06-14T13:56:41;4.20;;;3.00;;
4652;SDS011;9900;48.738;9.306;2023-06-14T13:59:10;5.00;;;2.90;;
4652;SDS011;9900;48.738;9.306;2023-06-14T14:01:39;6.93;;;3.97;;
4652;SDS011;9900;48.738;9.306;2023-06-14T14:04:08;4.20;;;3.30;;
4652;SDS011;9900;48.738;9.306;2023-06-14T14:06:37;6.10;;;3.23;;
4652;SDS011;9900;48.738;9.306;2023-06-14T14:09:07;6.10;;;3.60;;
4652;SDS011;9900;48.738;9.306;2023-06-14T14:11:36;3.40;;;3.10;;
4652;SDS011;9900;48.738;9.306;2023-06-14T14:14:07;5.73;;;3.43;;
4652;SDS011;9900;48.738;9.306;2023-06-14T14:16:37;6.40;;;3.60;;
4652;SDS011;9900;48.738;9.306;2023-06-14T14:19:06;6.73;;;4.00;;
4652;SDS011;9900;48.738;9.306;2023-06-14T14:21:35;5.10;;;3.53;;
4652;SDS011;9900;48.738;9.306;2023-06-14T14:24:04;3.67;;;3.37;;
4652;SDS011;9900;48.738;9.306;2023-06-14T14:26:34;4.33;;;3.07;;
4652;SDS011;9900;48.738;9.306;2023-06-14T14:29:03;5.90;;;3.50;;
4652;SDS011;9900;48.738;9.306;2023-06-14T14:31:32;5.63;;;3.43;;
4652;SDS011;9900;48.738;9.306;2023-06-14T14:34:01;4.80;;;3.30;;
4652;SDS011;9900;48.738;9.306;2023-06-14T14:36:30;5.83;;;3.80;;
4652;SDS011;9900;48.738;9.306;2023-06-14T14:39:00;10.63;;;3.70;;
4652;SDS011;9900;48.738;9.306;2023-06-14T14:41:29;7.40;;;3.40;;
4652;SDS011;9900;48.738;9.306;2023-06-14T14:43:59;4.17;;;3.27;;
4652;SDS011;9900;48.738;9.306;2023-06-14T14:46:28;7.53;;;3.80;;
4652;SDS011;9900;48.738;9.306;2023-06-14T14:48:57;7.33;;;3.63;;
4652;SDS011;9900;48.738;9.306;2023-06-14T14:51:27;3.47;;;3.10;;
4652;SDS011;9900;48.738;9.306;2023-06-14T14:53:55;6.10;;;3.73;;
4652;SDS011;9900;48.738;9.306;2023-06-14T14:56:24;5.47;;;3.47;;
4652;SDS011;9900;48.738;9.306;2023-06-14T14:58:54;10.93;;;3.97;;
4652;SDS011;9900;48.738;9.306;2023-06-14T15:01:24;4.23;;;3.10;;
4652;SDS011;9900;48.738;9.306;2023-06-14T15:03:53;3.83;;;3.47;;
4652;SDS011;9900;48.738;9.306;2023-06-14T15:06:26;6.17;;;3.40;;
4652;SDS011;9900;48.738;9.306;2023-06-14T15:08:55;5.90;;;3.13;;
4652;SDS011;9900;48.738;9.306;2023-06-14T15:11:24;3.60;;;3.07;;
4652;SDS011;9900;48.738;9.306;2023-06-14T15:13:54;6.20;;;3.58;;
4652;SDS011;9900;48.738;9.306;2023-06-14T15:16:24;5.28;;;3.15;;
4652;SDS011;9900;48.738;9.306;2023-06-14T15:18:53;6.63;;;3.60;;
4652;SDS011;9900;48.738;9.306;2023-06-14T15:21:22;8.43;;;3.30;;
4652;SDS011;9900;48.738;9.306;2023-06-14T15:23:51;5.73;;;3.80;;
4652;SDS011;9900;48.738;9.306;2023-06-14T15:26:20;6.87;;;3.50;;
4652;SDS011;9900;48.738;9.306;2023-06-14T15:28:51;8.10;;;3.73;;
4652;SDS011;9900;48.738;9.306;2023-06-14T15:31:20;9.13;;;3.40;;
4652;SDS011;9900;48.738;9.306;2023-06-14T15:33:52;3.77;;;3.47;;
4652;SDS011;9900;48.738;9.306;2023-06-14T15:36:21;4.10;;;3.70;;